Latest Coastal Weather Observations for Lord Howe Island

IDN60701

Issued at 3:51 am EST Wednesday 8 July 2015 (issued every 10 minutes, with the page automatically refreshed every 10 minutes)

About coastal observations | Map of coastal stations | Coastal observations for NSW | Marine services | Other Formats
Station Details ID: 200839 Name: LORD HOWE ISLAND AERO Lat: -31.54 Lon: 159.08 Height: 5.0 m
Data from the previous 72 hours. | See also: Recent months at Lord Howe Island
Date/Time
EST
Temp

°C
Wind Pressure Rain
since 9am
mm
Weather Cloud Vis
km
Sea
Height
m
Swell
Dir
 
Speed
knots
Gust
knots
hPa Trend Height
m
Period
s
Dir
08/03:30am 14.0 SSW 10 21 1019.9 - 0.8 - Partly cloudy 10 - - - -
08/03:00am 14.0 SSW 14 21 1019.6 - 0.8 - Partly cloudy 10 - - - -
08/02:30am 14.3 SSW 14 23 1019.5 - 0.8 - Mostly clear 10 - - - -
08/02:00am 14.1 SSW 14 24 1019.3 - 0.8 - Partly cloudy 10 - - - -
08/01:53am 14.2 SSW 15 26 1019.2 - 0.8 - Partly cloudy 10 - - - -
08/01:30am 14.3 SSW 15 24 1019.1 - 0.8 - Partly cloudy 10 - - - -
08/01:00am 14.8 SW 13 23 1018.8 - 0.8 - Partly cloudy 10 - - - -
08/12:30am 14.6 SSW 13 22 1018.7 - 0.8 - Partly cloudy 10 - - - -
08/12:00am 14.3 SSW 13 21 1018.8 - 0.8 - Partly cloudy 10 - - - -
 
Date/Time
EST
Temp

°C
Wind Pressure Rain
since 9am
mm
Weather Cloud Vis
km
Sea
Height
m
Swell
Dir
 
Speed
knots
Gust
knots
hPa Trend Height
m
Period
s
Dir
07/11:30pm 14.7 SSW 12 19 1018.5 - 0.8 - Cloudy 10 - - - -
07/11:00pm 14.7 SSW 13 23 1018.3 - 0.8 - Partly cloudy 10 - - - -
07/10:30pm 14.9 SSW 10 19 1018.1 - 0.8 - Partly cloudy 10 - - - -
07/10:18pm 14.7 SSW 15 25 1018.2 - 0.8 - Partly cloudy 10 - - - -
07/10:00pm 15.2 SW 12 20 1017.9 - 0.8 - Partly cloudy 10 - - - -
07/09:30pm 14.2 SSW 16 27 1017.8 - 0.8 - Partly cloudy 10 - - - -
07/09:00pm 15.1 SSW 14 25 1017.3 - 0.8 - Partly cloudy 10 - - - -
07/08:46pm 15.1 SSW 16 28 1017.2 - 0.8 - Partly cloudy 10 - - - -
07/08:30pm 15.2 SSW 15 23 1017.1 - 0.8 - Mostly cloudy 10 - - - -
07/08:00pm 15.3 SSW 13 26 1016.9 - 0.8 - Partly cloudy 10 - - - -
07/07:33pm 15.5 SSW 15 28 1016.5 - 0.8 - Partly cloudy 10 - - - -
07/07:30pm 15.7 SSW 14 22 1016.4 - 0.8 - Partly cloudy 10 - - - -
07/07:00pm 15.9 SSW 13 20 1015.9 - 0.8 - Partly cloudy 10 - - - -
07/06:30pm 15.9 SSW 14 25 1015.6 - 0.8 - Partly cloudy 10 - - - -
07/06:00pm 15.6 SSW 14 25 1015.2 - 0.8 - Partly cloudy 10 - - - -
07/05:30pm 15.6 SSW 14 28 1014.7 - 0.8 - Mostly clear 10 - - - -
07/05:00pm 15.8 SSW 15 26 1014.1 - 0.8 - Partly cloudy 10 - - - -
07/04:34pm 15.9 SSW 15 25 1013.6 - 0.8 - Partly cloudy 10 - - - -
07/04:30pm 16.1 SSW 14 23 1013.6 - 0.8 - Partly cloudy 10 - - - -
07/04:12pm 15.5 SSW 15 26 1013.4 - 0.8 - Partly cloudy 10 - - - -
07/04:05pm 15.1 SSW 15 26 1013.3 - 0.8 - Partly cloudy 8 - - - -
07/04:00pm 14.7 SSW 14 22 1013.4 - 0.6 - Partly cloudy 6 - - - -
07/03:53pm 14.8 SSW 14 23 1013.2 - 0.4 - Partly cloudy 6 - - - -
07/03:52pm 14.9 SSW 14 23 1013.2 - 0.4 - Partly cloudy 7 - - - -
07/03:38pm 14.9 SSW 15 32 1013.0 - 0.2 - Partly cloudy 6 - - - -
07/03:35pm 15.2 SSW 15 32 1012.9 - 0.2 - Partly cloudy 10 - - - -
07/03:30pm 16.2 SSW 14 20 1012.8 - 0.0 - Partly cloudy 10 - - - -
07/03:00pm 16.1 SSW 16 28 1012.4 - 0.0 - Partly cloudy 10 - - - -
07/02:57pm 16.3 SW 15 28 1012.4 - 0.0 - Partly cloudy 10 - - - -
07/02:30pm 17.9 SW 15 23 1011.9 R 0.0 Distant precip. Mostly cloudy 20 - - - -
07/02:00pm 17.3 SW 15 24 1011.6 - 0.0 - Mostly clear 10 - - - -
07/01:30pm 17.9 SW 16 23 1011.3 - 0.0 - Partly cloudy 10 - - - -
07/01:00pm 18.0 WSW 17 23 1011.2 - 0.0 - Mostly cloudy 10 - - - -
07/12:30pm 17.7 SW 16 22 1011.5 - 0.0 - Mostly clear 10 - - - -
07/12:03pm 16.7 WSW 20 31 1011.4 - 0.0 Showers Mostly cloudy 8 - - - -
07/12:00pm 17.8 SW 18 27 1011.3 - 0.0 Showers Mostly cloudy 8 - - - -
07/11:30am 18.0 WSW 19 26 1011.7 R 0.0 Distant precip. Mostly cloudy 20 - - - -
07/11:00am 18.0 WSW 20 27 1012.1 - 0.0 - Mostly clear 10 - - - -
07/10:00am 18.9 WSW 26 34 1012.2 - 0.0 - Partly cloudy 10 - - - -
07/09:30am 18.8 WSW 19 25 1012.2 - 0.0 - Partly cloudy 10 - - - -
07/09:00am 18.3 WSW 25 32 1012.1 - 0.0 - Partly cloudy 10 - - - -
07/08:30am 18.8 WSW 25 31 1012.1 S 7.4 Fine Partly cloudy 20 - - - -
07/08:00am 18.8 WSW 23 30 1012.1 - 7.4 - Partly cloudy 10 - - - -
07/07:30am 18.4 WSW 22 31 1012.1 - 7.4 - Partly cloudy 10 - - - -
07/07:00am 18.3 WSW 21 28 1011.9 - 7.4 - Partly cloudy 10 - - - -
07/06:30am 18.1 WSW 18 25 1011.6 - 7.4 - Mostly cloudy 10 - - - -
07/06:00am 18.1 SW 16 23 1011.4 - 7.4 - Partly cloudy 10 - - - -
07/05:30am 18.3 WSW 17 21 1011.1 F 7.4 Showers Mostly cloudy 20 - - - -
07/05:00am 18.4 WSW 21 27 1011.0 - 7.4 - Partly cloudy 10 - - - -
07/04:30am 18.5 WSW 20 24 1010.9 - 7.4 - Cloudy 10 - - - -
07/04:00am 18.6 WSW 19 24 1010.9 - 7.4 - Cloudy 10 - - - -
07/03:30am 18.5 WSW 19 23 1011.1 - 7.4 - Partly cloudy 10 - - - -
07/03:00am 18.6 WSW 21 26 1011.1 - 7.4 - Partly cloudy 10 - - - -
07/02:30am 18.7 WSW 22 29 1011.4 - 7.4 - Mostly clear 10 - - - -
07/02:00am 18.9 WSW 23 30 1011.8 - 7.4 - Partly cloudy 10 - - - -
07/01:30am 18.9 WSW 24 30 1012.1 - 7.4 - Partly cloudy 10 - - - -
07/01:00am 19.0 WSW 24 29 1011.9 - 7.4 - Partly cloudy 10 - - - -
07/12:30am 19.1 WSW 24 29 1011.9 - 7.4 - Partly cloudy 10 - - - -
07/12:00am 19.2 W 23 28 1012.1 - 7.4 - Partly cloudy 10 - - - -
 
Date/Time
EST
Temp

°C
Wind Pressure Rain
since 9am
mm
Weather Cloud Vis
km
Sea
Height
m
Swell
Dir
 
Speed
knots
Gust
knots
hPa Trend Height
m
Period
s
Dir
06/11:30pm 19.3 W 24 29 1012.5 - 7.4 - Partly cloudy 10 - - - -
06/11:00pm 19.6 W 24 29 1012.5 - 7.4 - Partly cloudy 10 - - - -
06/10:32pm 19.1 W 18 25 1012.7 - 7.4 - Partly cloudy 10 - - - -
06/10:30pm 18.8 W 17 24 1012.7 - 7.2 - Partly cloudy 10 - - - -
06/10:14pm 17.7 W 20 23 1012.9 - 6.8 - Partly cloudy 6 - - - -
06/10:00pm 19.7 W 20 24 1013.0 - 6.0 - Partly cloudy 10 - - - -
06/09:30pm 19.8 W 20 23 1013.2 - 6.0 - Partly cloudy 10 - - - -
06/09:00pm 19.9 W 14 21 1013.3 - 6.0 - Partly cloudy 10 - - - -
06/08:31pm 19.8 W 15 26 1013.5 - 6.0 - Partly cloudy 10 - - - -
06/08:30pm 19.8 W 15 22 1013.5 - 6.0 - Partly cloudy 10 - - - -
06/08:00pm 19.7 W 15 21 1013.5 - 6.0 - Partly cloudy 10 - - - -
06/07:30pm 19.7 W 18 23 1013.5 - 6.0 - Partly cloudy 10 - - - -
06/07:00pm 19.8 W 18 22 1013.7 - 6.0 - Partly cloudy 10 - - - -
06/06:30pm 19.7 W 19 22 1013.7 - 6.0 - Partly cloudy 10 - - - -
06/06:00pm 19.6 W 17 21 1013.6 - 6.0 - Partly cloudy 10 - - - -
06/05:30pm 19.5 W 20 24 1013.5 - 6.0 - Mostly cloudy 10 - - - -
06/05:00pm 19.4 W 19 22 1013.4 - 6.0 - Partly cloudy 10 - - - -
06/04:54pm 19.1 W 15 22 1013.4 - 6.0 - Partly cloudy 10 - - - -
06/04:30pm 18.2 WSW 7 11 1013.6 - 5.8 - Partly cloudy 9 - - - -
06/04:06pm 17.3 W 9 12 1013.7 - 5.8 - Partly cloudy 10 - - - -
06/04:00pm 17.3 W 9 12 1013.7 - 5.8 - Partly cloudy 9 - - - -
06/03:38pm 18.6 NNW 5 11 1013.9 - 1.4 - Partly cloudy 5 - - - -
06/03:30pm 19.4 NNW 4 9 1013.7 - 0.0 - Partly cloudy 10 - - - -
06/03:00pm 19.7 NW 6 11 1013.9 - 0.0 - Partly cloudy 10 - - - -
06/02:30pm 19.9 WNW 5 9 1014.1 F 0.0 Fine Mostly cloudy 35 - - - -
06/02:00pm 20.5 WNW 6 10 1014.2 - 0.0 - Partly cloudy 10 - - - -
06/01:30pm 20.1 W 11 13 1014.5 - 0.0 - Mostly clear 10 - - - -
06/01:00pm 20.2 W 13 16 1014.6 - 0.0 - Mostly clear 10 - - - -
06/12:30pm 20.5 W 12 15 1015.2 - 0.0 - Mostly clear 10 - - - -
06/12:00pm 20.2 W 14 16 1015.7 - 0.0 - Mostly clear 10 - - - -
06/11:30am 20.3 W 11 15 1016.2 F 0.0 Fine Mostly clear 35 - - - -
06/11:00am 19.8 W 13 15 1016.9 - 0.0 - Mostly clear 10 - - - -
06/10:30am 20.1 W 10 13 1017.2 - 0.0 - Mostly cloudy 10 - - - -
06/10:00am 19.4 WSW 10 13 1017.3 - 0.0 - Partly cloudy 10 - - - -
06/09:30am 19.2 W 13 17 1017.9 - 0.0 - Partly cloudy 10 - - - -
06/09:00am 19.5 W 13 16 1018.0 - 0.0 - Mostly cloudy 10 - - - -
06/08:30am 19.0 W 12 16 1017.9 F 0.0 Fine Partly cloudy 35 - - - -
06/08:00am 19.0 W 11 14 1018.1 - 0.0 - Partly cloudy 10 - - - -
06/07:30am 18.6 W 11 14 1018.0 - 0.0 - Partly cloudy 10 - - - -
06/07:00am 18.0 W 12 14 1018.1 - 0.0 - Partly cloudy 10 - - - -
06/06:30am 17.9 W 11 13 1017.9 - 0.0 - Partly cloudy 10 - - - -
06/06:00am 18.0 W 10 12 1017.9 - 0.0 - Partly cloudy 10 - - - -
06/05:30am 18.0 W 10 13 1017.7 F 0.0 Fine Mostly cloudy 35 - - - -
06/05:00am 17.9 W 11 13 1017.7 - 0.0 - Partly cloudy 10 - - - -
06/04:30am 17.8 W 10 13 1017.6 - 0.0 - Partly cloudy 10 - - - -
06/04:00am 17.8 WSW 9 12 1017.6 - 0.0 - Partly cloudy 10 - - - -
06/03:30am 17.8 WSW 11 14 1017.9 - 0.0 - Partly cloudy 10 - - - -
06/03:00am 17.8 WSW 9 11 1018.1 - 0.0 - Partly cloudy 10 - - - -
06/02:30am 17.8 W 9 12 1018.4 - 0.0 - Partly cloudy 10 - - - -
06/02:00am 17.8 WSW 9 11 1018.6 - 0.0 - Partly cloudy 10 - - - -
06/01:30am 17.8 WSW 9 11 1018.7 - 0.0 - Partly cloudy 10 - - - -
06/01:00am 17.8 WSW 9 12 1019.0 - 0.0 - Partly cloudy 10 - - - -
06/12:30am 17.8 WSW 9 12 1019.2 - 0.0 - Partly cloudy 10 - - - -
06/12:00am 18.0 WSW 10 13 1019.4 - 0.0 - Partly cloudy 10 - - - -
 
Date/Time
EST
Temp

°C
Wind Pressure Rain
since 9am
mm
Weather Cloud Vis
km
Sea
Height
m
Swell
Dir
 
Speed
knots
Gust
knots
hPa Trend Height
m
Period
s
Dir
05/11:30pm 18.0 WSW 10 13 1019.7 - 0.0 - Partly cloudy 10 - - - -
05/11:00pm 17.9 WSW 10 12 1019.7 - 0.0 - Partly cloudy 10 - - - -
05/10:30pm 18.0 WSW 10 13 1019.9 - 0.0 - Partly cloudy 10 - - - -
05/10:00pm 18.0 WSW 9 12 1019.9 - 0.0 - Partly cloudy 10 - - - -
05/09:30pm 18.0 WSW 10 13 1019.8 - 0.0 - Partly cloudy 10 - - - -
05/09:00pm 18.0 WSW 12 14 1019.9 - 0.0 - Partly cloudy 10 - - - -
05/08:30pm 18.2 WSW 10 13 1019.9 - 0.0 - Cloudy 10 - - - -
05/08:00pm 18.1 WSW 9 14 1019.8 - 0.0 - Partly cloudy 10 - - - -
05/07:30pm 18.1 WSW 11 14 1019.9 - 0.0 - Partly cloudy 10 - - - -
05/07:00pm 18.1 WSW 9 12 1019.7 - 0.0 - Partly cloudy 10 - - - -
05/06:30pm 17.9 SW 9 12 1019.5 - 0.0 - - 10 - - - -
05/06:00pm 17.8 SW 7 12 1019.2 - 0.0 - - 10 - - - -
05/05:30pm 18.0 SW 8 12 1019.1 - 0.0 - Mostly clear 10 - - - -
05/05:00pm 18.1 WSW 10 15 1018.9 - 0.0 - - 10 - - - -
05/04:30pm 18.1 SW 10 13 1018.9 - 0.0 - Partly cloudy 10 - - - -
05/04:00pm 18.4 SW 11 16 1018.9 - 0.0 - Partly cloudy 10 - - - -
05/03:30pm 18.6 W 13 16 1018.6 - 0.0 - Partly cloudy 10 - - - -
05/03:00pm 18.6 W 13 16 1018.6 - 0.0 - Partly cloudy 10 - - - -
05/02:30pm 18.9 W 15 18 1018.8 F 0.0 Fine Mostly cloudy 35 - - - -
05/02:00pm 18.8 W 14 18 1019.0 - 0.0 - Partly cloudy 10 - - - -
05/01:30pm 19.4 W 15 20 1019.1 - 0.0 - Partly cloudy 10 - - - -
05/01:00pm 19.0 W 16 20 1019.3 - 0.0 - Mostly cloudy 10 - - - -
05/12:30pm 19.0 W 17 20 1019.4 - 0.0 - Mostly clear 10 - - - -
05/12:00pm 19.5 W 14 19 1019.9 - 0.0 - Mostly clear 10 - - - -
05/11:30am 19.2 W 13 19 1020.1 R 0.0 Fine Mostly clear 35 - - - -
05/11:00am 19.0 W 13 21 1020.6 - 0.0 - Mostly clear 10 - - - -
05/10:30am 18.8 W 15 21 1021.0 - 0.0 - Mostly clear 10 - - - -
05/10:00am 19.2 W 16 21 1021.3 - 0.0 - Partly cloudy 10 - - - -
05/09:30am 19.1 W 15 20 1021.5 - 0.0 - Partly cloudy 10 - - - -
05/09:00am 18.5 WNW 7 11 1021.3 - 0.0 - Mostly clear 10 - - - -
05/08:30am 17.9 WNW 7 12 1021.3 F 0.0 Fine Partly cloudy 35 - - - -
05/08:00am 16.1 W 7 10 1021.5 - 0.0 - Mostly clear 10 - - - -
05/07:30am 16.5 W 5 9 1021.2 - 0.0 - Mostly clear 10 - - - -
05/07:00am 17.0 W 10 15 1021.2 - 0.0 - Partly cloudy 10 - - - -
05/06:30am 16.0 NW 3 5 1021.0 - 0.0 - Partly cloudy 10 - - - -
05/06:00am 14.5 N 1 3 1020.8 - 0.0 - Partly cloudy 10 - - - -
05/05:30am 15.8 WNW 6 10 1020.6 F 0.0 Fine Partly cloudy 30 - - - -
05/05:00am 16.2 WNW 7 11 1020.5 - 0.0 - Partly cloudy 10 - - - -
05/04:30am 15.6 WNW 5 9 1020.3 - 0.0 - Partly cloudy 10 - - - -
05/04:00am 13.9 NW 3 5 1020.2 - 0.0 - Partly cloudy 10 - - - -
05/03:30am 15.7 W 5 7 1020.2 - 0.0 - Partly cloudy 10 - - - -

Other Formats:

Comma delimited format used in spreadsheet applications
http://www.bom.gov.au/fwo/IDN60701/IDN60701.94995.axf

JavaScript Object Notation format (JSON) in row-major order
http://www.bom.gov.au/fwo/IDN60701/IDN60701.94995.json